Gypsy, Kentucky
Current Conditions -  °F | °C
As of 12:15 PM on Friday 19 Dec 2014 (Local Time) from KSJS Reporting Station
Overcast Overcast  
Wind Chill: 32°   Ceiling: 1800
Heat Index: 32°   Visibility: 10mi
Dew Point: 24°   Wind: 3mph
Humidity: 73%   Direction: 30°NNE
Pressure: 30.24"   Gusts: NA
Location:  37.6421°N, 82.9499°W
Report Text: KSJS 191715Z AUTO 03003KT 10SM OVC018 00/M04 A3024 RMK AO2 T00001044
Loading
Personal Weather Stations






























Interactive Weather Map New forecast layout! Learn more

10-Day Weather Forecast

Advertisements
Track Severe Weather on mobile